sensor_id;sensor_type;location;lat;lon;timestamp;P1;durP1;ratioP1;P2;durP2;ratioP2
15261;SDS011;7733;51.554;13.590;2022-09-20T00:00:05;3.50;;;1.47;;
15261;SDS011;7733;51.554;13.590;2022-09-20T00:02:32;2.53;;;1.57;;
15261;SDS011;7733;51.554;13.590;2022-09-20T00:04:57;1.30;;;1.20;;
15261;SDS011;7733;51.554;13.590;2022-09-20T00:07:23;3.57;;;1.20;;
15261;SDS011;7733;51.554;13.590;2022-09-20T00:09:49;2.63;;;1.40;;
15261;SDS011;7733;51.554;13.590;2022-09-20T00:12:14;2.07;;;1.57;;
15261;SDS011;7733;51.554;13.590;2022-09-20T00:14:40;3.47;;;1.60;;
15261;SDS011;7733;51.554;13.590;2022-09-20T00:17:06;2.43;;;1.20;;
15261;SDS011;7733;51.554;13.590;2022-09-20T00:19:31;1.93;;;1.50;;
15261;SDS011;7733;51.554;13.590;2022-09-20T00:21:57;2.83;;;1.50;;
15261;SDS011;7733;51.554;13.590;2022-09-20T00:24:22;1.43;;;1.13;;
15261;SDS011;7733;51.554;13.590;2022-09-20T00:26:48;2.03;;;1.30;;
15261;SDS011;7733;51.554;13.590;2022-09-20T00:29:15;3.53;;;1.33;;
15261;SDS011;7733;51.554;13.590;2022-09-20T00:31:41;1.50;;;1.10;;
15261;SDS011;7733;51.554;13.590;2022-09-20T00:34:07;3.07;;;1.40;;
15261;SDS011;7733;51.554;13.590;2022-09-20T00:36:53;2.90;;;1.23;;
15261;SDS011;7733;51.554;13.590;2022-09-20T00:39:19;2.83;;;1.37;;
15261;SDS011;7733;51.554;13.590;2022-09-20T00:41:44;2.33;;;1.40;;
15261;SDS011;7733;51.554;13.590;2022-09-20T00:47:24;1.93;;;0.90;;
15261;SDS011;7733;51.554;13.590;2022-09-20T00:50:05;2.60;;;1.10;;
15261;SDS011;7733;51.554;13.590;2022-09-20T00:52:38;1.77;;;1.10;;
15261;SDS011;7733;51.554;13.590;2022-09-20T00:55:08;1.77;;;1.00;;
15261;SDS011;7733;51.554;13.590;2022-09-20T00:57:35;2.40;;;1.37;;
15261;SDS011;7733;51.554;13.590;2022-09-20T01:00:04;1.90;;;1.20;;
15261;SDS011;7733;51.554;13.590;2022-09-20T01:02:34;4.53;;;1.20;;
15261;SDS011;7733;51.554;13.590;2022-09-20T01:05:11;1.50;;;1.20;;
15261;SDS011;7733;51.554;13.590;2022-09-20T01:07:41;2.40;;;1.40;;
15261;SDS011;7733;51.554;13.590;2022-09-20T01:10:08;1.90;;;1.30;;
15261;SDS011;7733;51.554;13.590;2022-09-20T01:12:34;1.37;;;1.10;;
15261;SDS011;7733;51.554;13.590;2022-09-20T01:15:04;2.63;;;1.57;;
15261;SDS011;7733;51.554;13.590;2022-09-20T01:17:33;1.87;;;1.20;;
15261;SDS011;7733;51.554;13.590;2022-09-20T01:23:02;2.90;;;1.37;;
15261;SDS011;7733;51.554;13.590;2022-09-20T01:25:55;1.33;;;1.23;;
15261;SDS011;7733;51.554;13.590;2022-09-20T01:28:45;2.63;;;1.50;;
15261;SDS011;7733;51.554;13.590;2022-09-20T01:31:23;2.67;;;1.20;;
15261;SDS011;7733;51.554;13.590;2022-09-20T01:34:02;2.07;;;1.93;;
15261;SDS011;7733;51.554;13.590;2022-09-20T01:36:43;2.40;;;1.40;;
15261;SDS011;7733;51.554;13.590;2022-09-20T01:42:16;2.93;;;1.50;;
15261;SDS011;7733;51.554;13.590;2022-09-20T01:50:29;1.53;;;1.40;;
15261;SDS011;7733;51.554;13.590;2022-09-20T01:56:26;5.97;;;1.93;;
15261;SDS011;7733;51.554;13.590;2022-09-20T01:59:17;2.67;;;1.57;;
15261;SDS011;7733;51.554;13.590;2022-09-20T02:02:06;4.27;;;1.60;;
15261;SDS011;7733;51.554;13.590;2022-09-20T02:05:03;2.83;;;1.90;;
15261;SDS011;7733;51.554;13.590;2022-09-20T02:07:57;3.10;;;2.10;;
15261;SDS011;7733;51.554;13.590;2022-09-20T02:11:10;4.13;;;1.73;;
15261;SDS011;7733;51.554;13.590;2022-09-20T02:22:10;4.33;;;2.33;;
15261;SDS011;7733;51.554;13.590;2022-09-20T02:25:17;2.60;;;2.40;;
15261;SDS011;7733;51.554;13.590;2022-09-20T02:31:15;4.10;;;2.30;;
15261;SDS011;7733;51.554;13.590;2022-09-20T02:39:44;4.33;;;2.43;;
15261;SDS011;7733;51.554;13.590;2022-09-20T02:42:57;3.80;;;2.80;;
15261;SDS011;7733;51.554;13.590;2022-09-20T02:48:09;4.73;;;2.70;;
15261;SDS011;7733;51.554;13.590;2022-09-20T02:50:47;2.80;;;2.60;;
15261;SDS011;7733;51.554;13.590;2022-09-20T02:54:07;5.13;;;2.83;;
15261;SDS011;7733;51.554;13.590;2022-09-20T02:56:59;4.17;;;3.30;;
15261;SDS011;7733;51.554;13.590;2022-09-20T02:59:48;5.07;;;2.90;;
15261;SDS011;7733;51.554;13.590;2022-09-20T03:02:26;4.77;;;3.33;;
15261;SDS011;7733;51.554;13.590;2022-09-20T03:14:12;8.70;;;4.70;;
15261;SDS011;7733;51.554;13.590;2022-09-20T03:20:05;7.43;;;4.73;;
15261;SDS011;7733;51.554;13.590;2022-09-20T03:26:02;7.70;;;5.40;;
15261;SDS011;7733;51.554;13.590;2022-09-20T03:29:04;7.83;;;5.27;;
15261;SDS011;7733;51.554;13.590;2022-09-20T03:35:06;9.83;;;5.43;;
15261;SDS011;7733;51.554;13.590;2022-09-20T03:38:14;10.57;;;5.60;;
15261;SDS011;7733;51.554;13.590;2022-09-20T03:44:09;7.00;;;6.07;;
15261;SDS011;7733;51.554;13.590;2022-09-20T03:47:20;10.77;;;6.87;;
15261;SDS011;7733;51.554;13.590;2022-09-20T03:50:17;9.00;;;7.07;;
15261;SDS011;7733;51.554;13.590;2022-09-20T03:56:31;10.97;;;7.07;;
15261;SDS011;7733;51.554;13.590;2022-09-20T04:05:21;12.53;;;8.47;;
15261;SDS011;7733;51.554;13.590;2022-09-20T04:08:15;9.27;;;7.77;;
15261;SDS011;7733;51.554;13.590;2022-09-20T04:11:15;9.43;;;8.20;;
15261;SDS011;7733;51.554;13.590;2022-09-20T04:14:17;13.93;;;9.27;;
15261;SDS011;7733;51.554;13.590;2022-09-20T04:19:45;13.97;;;9.87;;
15261;SDS011;7733;51.554;13.590;2022-09-20T04:22:22;14.27;;;9.27;;
15261;SDS011;7733;51.554;13.590;2022-09-20T04:24:54;11.67;;;9.43;;
15261;SDS011;7733;51.554;13.590;2022-09-20T04:27:35;11.20;;;8.80;;
15261;SDS011;7733;51.554;13.590;2022-09-20T04:30:19;12.97;;;9.50;;
15261;SDS011;7733;51.554;13.590;2022-09-20T04:32:58;9.50;;;8.60;;
15261;SDS011;7733;51.554;13.590;2022-09-20T04:42:08;12.50;;;9.10;;
15261;SDS011;7733;51.554;13.590;2022-09-20T04:54:38;11.87;;;9.87;;
15261;SDS011;7733;51.554;13.590;2022-09-20T05:00:07;14.27;;;10.37;;
15261;SDS011;7733;51.554;13.590;2022-09-20T05:12:37;13.33;;;10.07;;
15261;SDS011;7733;51.554;13.590;2022-09-20T05:17:54;15.97;;;11.03;;
15261;SDS011;7733;51.554;13.590;2022-09-20T05:21:12;12.30;;;10.27;;
15261;SDS011;7733;51.554;13.590;2022-09-20T05:27:24;12.70;;;10.10;;
15261;SDS011;7733;51.554;13.590;2022-09-20T05:30:18;15.37;;;10.83;;
15261;SDS011;7733;51.554;13.590;2022-09-20T05:33:22;15.17;;;10.97;;
15261;SDS011;7733;51.554;13.590;2022-09-20T05:38:49;14.83;;;10.73;;
15261;SDS011;7733;51.554;13.590;2022-09-20T05:44:48;13.10;;;10.20;;
15261;SDS011;7733;51.554;13.590;2022-09-20T05:47:30;11.53;;;10.33;;
15261;SDS011;7733;51.554;13.590;2022-09-20T05:53:30;12.87;;;10.27;;
15261;SDS011;7733;51.554;13.590;2022-09-20T06:01:57;13.40;;;10.10;;
15261;SDS011;7733;51.554;13.590;2022-09-20T06:04:56;12.90;;;10.53;;
15261;SDS011;7733;51.554;13.590;2022-09-20T06:13:14;16.13;;;11.20;;
15261;SDS011;7733;51.554;13.590;2022-09-20T06:15:47;17.10;;;10.37;;
15261;SDS011;7733;51.554;13.590;2022-09-20T06:18:35;15.93;;;9.83;;
15261;SDS011;7733;51.554;13.590;2022-09-20T06:24:18;13.27;;;8.63;;
15261;SDS011;7733;51.554;13.590;2022-09-20T06:26:57;13.47;;;9.03;;
15261;SDS011;7733;51.554;13.590;2022-09-20T06:29:29;11.43;;;8.57;;
15261;SDS011;7733;51.554;13.590;2022-09-20T06:32:00;13.20;;;8.93;;
15261;SDS011;7733;51.554;13.590;2022-09-20T06:34:26;11.93;;;8.80;;
15261;SDS011;7733;51.554;13.590;2022-09-20T06:37:08;12.10;;;8.53;;
15261;SDS011;7733;51.554;13.590;2022-09-20T06:40:27;11.50;;;7.70;;
15261;SDS011;7733;51.554;13.590;2022-09-20T06:43:43;13.80;;;7.63;;
15261;SDS011;7733;51.554;13.590;2022-09-20T06:46:09;10.50;;;7.40;;
15261;SDS011;7733;51.554;13.590;2022-09-20T06:48:36;10.93;;;7.30;;
15261;SDS011;7733;51.554;13.590;2022-09-20T06:51:04;8.67;;;6.97;;
15261;SDS011;7733;51.554;13.590;2022-09-20T06:53:34;13.43;;;7.43;;
15261;SDS011;7733;51.554;13.590;2022-09-20T06:56:03;11.77;;;7.37;;
15261;SDS011;7733;51.554;13.590;2022-09-20T06:58:32;12.57;;;7.57;;
15261;SDS011;7733;51.554;13.590;2022-09-20T07:00:57;7.87;;;7.07;;
15261;SDS011;7733;51.554;13.590;2022-09-20T07:03:23;11.80;;;7.63;;
15261;SDS011;7733;51.554;13.590;2022-09-20T07:05:48;11.67;;;9.40;;
15261;SDS011;7733;51.554;13.590;2022-09-20T07:08:14;16.00;;;10.73;;
15261;SDS011;7733;51.554;13.590;2022-09-20T07:10:41;32.83;;;29.73;;
15261;SDS011;7733;51.554;13.590;2022-09-20T07:13:08;16.93;;;13.77;;
15261;SDS011;7733;51.554;13.590;2022-09-20T07:15:37;13.17;;;10.20;;
15261;SDS011;7733;51.554;13.590;2022-09-20T07:18:03;11.37;;;9.40;;
15261;SDS011;7733;51.554;13.590;2022-09-20T07:20:29;10.93;;;9.93;;
15261;SDS011;7733;51.554;13.590;2022-09-20T07:22:54;12.27;;;8.97;;
15261;SDS011;7733;51.554;13.590;2022-09-20T07:25:20;12.30;;;10.00;;
15261;SDS011;7733;51.554;13.590;2022-09-20T07:27:47;11.23;;;8.63;;
15261;SDS011;7733;51.554;13.590;2022-09-20T07:30:14;8.47;;;7.53;;
15261;SDS011;7733;51.554;13.590;2022-09-20T07:32:41;8.03;;;6.93;;
15261;SDS011;7733;51.554;13.590;2022-09-20T07:35:10;10.83;;;7.60;;
15261;SDS011;7733;51.554;13.590;2022-09-20T07:37:37;10.30;;;7.50;;
15261;SDS011;7733;51.554;13.590;2022-09-20T07:40:05;10.90;;;7.90;;
15261;SDS011;7733;51.554;13.590;2022-09-20T07:42:34;10.20;;;7.13;;
15261;SDS011;7733;51.554;13.590;2022-09-20T07:44:59;9.20;;;7.20;;
15261;SDS011;7733;51.554;13.590;2022-09-20T07:47:26;11.23;;;8.00;;
15261;SDS011;7733;51.554;13.590;2022-09-20T07:49:56;11.50;;;8.00;;
15261;SDS011;7733;51.554;13.590;2022-09-20T07:52:22;11.70;;;7.70;;
15261;SDS011;7733;51.554;13.590;2022-09-20T07:54:48;10.40;;;7.77;;
15261;SDS011;7733;51.554;13.590;2022-09-20T07:57:14;9.80;;;7.50;;
15261;SDS011;7733;51.554;13.590;2022-09-20T07:59:41;8.23;;;6.77;;
15261;SDS011;7733;51.554;13.590;2022-09-20T08:02:08;9.03;;;6.63;;
15261;SDS011;7733;51.554;13.590;2022-09-20T08:04:39;15.23;;;7.73;;
15261;SDS011;7733;51.554;13.590;2022-09-20T08:07:04;8.40;;;7.10;;
15261;SDS011;7733;51.554;13.590;2022-09-20T08:09:30;9.00;;;7.60;;
15261;SDS011;7733;51.554;13.590;2022-09-20T08:11:56;10.37;;;7.07;;
15261;SDS011;7733;51.554;13.590;2022-09-20T08:14:22;10.53;;;7.23;;
15261;SDS011;7733;51.554;13.590;2022-09-20T08:16:48;8.17;;;5.93;;
15261;SDS011;7733;51.554;13.590;2022-09-20T08:19:16;8.40;;;7.30;;
15261;SDS011;7733;51.554;13.590;2022-09-20T08:21:47;8.97;;;6.80;;
15261;SDS011;7733;51.554;13.590;2022-09-20T08:24:17;7.67;;;6.20;;
15261;SDS011;7733;51.554;13.590;2022-09-20T08:26:43;7.73;;;6.93;;
15261;SDS011;7733;51.554;13.590;2022-09-20T08:29:09;8.33;;;6.37;;
15261;SDS011;7733;51.554;13.590;2022-09-20T08:31:37;9.80;;;7.33;;
15261;SDS011;7733;51.554;13.590;2022-09-20T08:34:06;10.00;;;6.70;;
15261;SDS011;7733;51.554;13.590;2022-09-20T08:36:34;7.87;;;6.10;;
15261;SDS011;7733;51.554;13.590;2022-09-20T08:39:05;7.83;;;6.37;;
15261;SDS011;7733;51.554;13.590;2022-09-20T08:41:32;9.80;;;6.20;;
15261;SDS011;7733;51.554;13.590;2022-09-20T08:44:21;6.77;;;5.90;;
15261;SDS011;7733;51.554;13.590;2022-09-20T08:47:16;7.03;;;5.60;;
15261;SDS011;7733;51.554;13.590;2022-09-20T08:49:48;6.40;;;5.43;;
15261;SDS011;7733;51.554;13.590;2022-09-20T08:52:28;7.50;;;5.80;;
15261;SDS011;7733;51.554;13.590;2022-09-20T08:54:59;10.10;;;6.00;;
15261;SDS011;7733;51.554;13.590;2022-09-20T08:57:34;6.80;;;6.07;;
15261;SDS011;7733;51.554;13.590;2022-09-20T09:00:01;8.37;;;6.57;;
15261;SDS011;7733;51.554;13.590;2022-09-20T09:02:30;8.67;;;7.03;;
15261;SDS011;7733;51.554;13.590;2022-09-20T09:04:58;8.13;;;6.50;;
15261;SDS011;7733;51.554;13.590;2022-09-20T09:07:24;11.00;;;9.90;;
15261;SDS011;7733;51.554;13.590;2022-09-20T09:09:52;8.63;;;7.13;;
15261;SDS011;7733;51.554;13.590;2022-09-20T09:12:25;7.30;;;6.50;;
15261;SDS011;7733;51.554;13.590;2022-09-20T09:15:03;7.50;;;6.17;;
15261;SDS011;7733;51.554;13.590;2022-09-20T09:17:47;6.17;;;5.00;;
15261;SDS011;7733;51.554;13.590;2022-09-20T09:20:15;6.20;;;5.23;;
15261;SDS011;7733;51.554;13.590;2022-09-20T09:22:46;5.57;;;5.07;;
15261;SDS011;7733;51.554;13.590;2022-09-20T09:25:28;6.50;;;5.03;;
15261;SDS011;7733;51.554;13.590;2022-09-20T09:28:03;5.27;;;4.77;;
15261;SDS011;7733;51.554;13.590;2022-09-20T09:33:14;5.87;;;5.03;;
15261;SDS011;7733;51.554;13.590;2022-09-20T09:38:29;8.67;;;5.63;;
15261;SDS011;7733;51.554;13.590;2022-09-20T09:40:59;5.10;;;4.50;;
15261;SDS011;7733;51.554;13.590;2022-09-20T09:43:30;5.93;;;4.73;;
15261;SDS011;7733;51.554;13.590;2022-09-20T09:46:15;6.63;;;5.10;;
15261;SDS011;7733;51.554;13.590;2022-09-20T09:48:47;4.90;;;4.50;;
15261;SDS011;7733;51.554;13.590;2022-09-20T09:51:32;5.10;;;4.67;;
15261;SDS011;7733;51.554;13.590;2022-09-20T09:54:00;5.43;;;4.13;;
15261;SDS011;7733;51.554;13.590;2022-09-20T10:05:45;6.60;;;6.00;;
15261;SDS011;7733;51.554;13.590;2022-09-20T10:11:43;4.33;;;3.93;;
15261;SDS011;7733;51.554;13.590;2022-09-20T10:14:53;4.10;;;3.80;;
15261;SDS011;7733;51.554;13.590;2022-09-20T10:24:04;4.53;;;4.23;;
15261;SDS011;7733;51.554;13.590;2022-09-20T10:27:05;4.20;;;3.90;;
15261;SDS011;7733;51.554;13.590;2022-09-20T10:32:57;6.73;;;6.07;;
15261;SDS011;7733;51.554;13.590;2022-09-20T10:42:01;4.70;;;3.63;;
15261;SDS011;7733;51.554;13.590;2022-09-20T10:48:32;3.87;;;3.10;;
15261;SDS011;7733;51.554;13.590;2022-09-20T10:51:56;6.13;;;4.43;;
15261;SDS011;7733;51.554;13.590;2022-09-20T10:57:18;12.67;;;9.97;;
15261;SDS011;7733;51.554;13.590;2022-09-20T11:02:53;2.83;;;2.50;;
15261;SDS011;7733;51.554;13.590;2022-09-20T11:06:04;4.33;;;2.80;;
15261;SDS011;7733;51.554;13.590;2022-09-20T11:08:50;4.13;;;2.57;;
15261;SDS011;7733;51.554;13.590;2022-09-20T11:11:22;4.47;;;2.33;;
15261;SDS011;7733;51.554;13.590;2022-09-20T11:14:08;2.20;;;2.10;;
15261;SDS011;7733;51.554;13.590;2022-09-20T11:16:50;8.37;;;4.87;;
15261;SDS011;7733;51.554;13.590;2022-09-20T11:22:52;22.77;;;8.60;;
15261;SDS011;7733;51.554;13.590;2022-09-20T11:30:55;1.77;;;1.67;;
15261;SDS011;7733;51.554;13.590;2022-09-20T11:33:44;2.03;;;1.80;;
15261;SDS011;7733;51.554;13.590;2022-09-20T11:36:20;2.93;;;1.77;;
15261;SDS011;7733;51.554;13.590;2022-09-20T11:38:56;4.17;;;2.73;;
15261;SDS011;7733;51.554;13.590;2022-09-20T11:41:29;1.77;;;1.67;;
15261;SDS011;7733;51.554;13.590;2022-09-20T11:44:14;1.80;;;1.70;;
15261;SDS011;7733;51.554;13.590;2022-09-20T11:46:52;1.87;;;1.70;;
15261;SDS011;7733;51.554;13.590;2022-09-20T11:55:58;1.87;;;1.50;;
15261;SDS011;7733;51.554;13.590;2022-09-20T11:58:42;2.07;;;1.53;;
15261;SDS011;7733;51.554;13.590;2022-09-20T12:01:20;1.47;;;1.40;;
15261;SDS011;7733;51.554;13.590;2022-09-20T12:03:57;2.50;;;1.50;;
15261;SDS011;7733;51.554;13.590;2022-09-20T12:06:37;1.40;;;1.30;;
15261;SDS011;7733;51.554;13.590;2022-09-20T12:09:20;1.23;;;1.10;;
15261;SDS011;7733;51.554;13.590;2022-09-20T12:11:51;2.57;;;1.27;;
15261;SDS011;7733;51.554;13.590;2022-09-20T12:14:19;1.70;;;1.03;;
15261;SDS011;7733;51.554;13.590;2022-09-20T12:16:50;2.37;;;1.27;;
15261;SDS011;7733;51.554;13.590;2022-09-20T12:24:25;0.93;;;0.77;;
15261;SDS011;7733;51.554;13.590;2022-09-20T12:26:55;0.70;;;0.70;;
15261;SDS011;7733;51.554;13.590;2022-09-20T12:29:52;0.83;;;0.53;;
15261;SDS011;7733;51.554;13.590;2022-09-20T12:32:44;1.80;;;0.83;;
15261;SDS011;7733;51.554;13.590;2022-09-20T12:38:16;1.20;;;0.80;;
15261;SDS011;7733;51.554;13.590;2022-09-20T12:41:02;0.77;;;0.77;;
15261;SDS011;7733;51.554;13.590;2022-09-20T12:43:45;1.20;;;0.80;;
15261;SDS011;7733;51.554;13.590;2022-09-20T12:46:34;1.93;;;0.93;;
15261;SDS011;7733;51.554;13.590;2022-09-20T12:49:21;2.53;;;0.80;;
15261;SDS011;7733;51.554;13.590;2022-09-20T12:52:20;1.03;;;1.00;;
15261;SDS011;7733;51.554;13.590;2022-09-20T12:55:07;1.30;;;0.90;;
15261;SDS011;7733;51.554;13.590;2022-09-20T12:57:37;0.70;;;0.70;;
15261;SDS011;7733;51.554;13.590;2022-09-20T13:00:05;1.57;;;1.20;;
15261;SDS011;7733;51.554;13.590;2022-09-20T13:02:55;1.30;;;0.90;;
15261;SDS011;7733;51.554;13.590;2022-09-20T13:05:29;1.00;;;0.90;;
15261;SDS011;7733;51.554;13.590;2022-09-20T13:08:21;1.13;;;1.13;;
15261;SDS011;7733;51.554;13.590;2022-09-20T13:10:52;2.60;;;1.20;;
15261;SDS011;7733;51.554;13.590;2022-09-20T13:19:44;1.53;;;1.43;;
15261;SDS011;7733;51.554;13.590;2022-09-20T13:22:16;2.10;;;1.10;;
15261;SDS011;7733;51.554;13.590;2022-09-20T13:24:51;1.83;;;1.20;;
15261;SDS011;7733;51.554;13.590;2022-09-20T13:32:50;3.50;;;1.70;;
15261;SDS011;7733;51.554;13.590;2022-09-20T13:35:20;1.97;;;1.40;;
15261;SDS011;7733;51.554;13.590;2022-09-20T13:38:03;2.30;;;1.40;;
15261;SDS011;7733;51.554;13.590;2022-09-20T13:40:37;3.33;;;1.90;;
15261;SDS011;7733;51.554;13.590;2022-09-20T13:45:56;3.23;;;2.33;;
15261;SDS011;7733;51.554;13.590;2022-09-20T13:48:33;2.00;;;1.80;;
15261;SDS011;7733;51.554;13.590;2022-09-20T13:50:59;2.07;;;1.87;;
15261;SDS011;7733;51.554;13.590;2022-09-20T13:53:26;5.57;;;4.97;;
15261;SDS011;7733;51.554;13.590;2022-09-20T13:55:56;16.63;;;12.67;;
15261;SDS011;7733;51.554;13.590;2022-09-20T13:58:32;9.83;;;8.77;;
15261;SDS011;7733;51.554;13.590;2022-09-20T14:01:02;2.40;;;2.03;;
15261;SDS011;7733;51.554;13.590;2022-09-20T14:03:40;15.93;;;7.77;;
15261;SDS011;7733;51.554;13.590;2022-09-20T14:06:10;14.20;;;8.00;;
15261;SDS011;7733;51.554;13.590;2022-09-20T14:08:40;20.57;;;9.67;;
15261;SDS011;7733;51.554;13.590;2022-09-20T14:11:15;6.80;;;3.87;;
15261;SDS011;7733;51.554;13.590;2022-09-20T14:13:54;7.77;;;4.57;;
15261;SDS011;7733;51.554;13.590;2022-09-20T14:16:30;2.07;;;1.10;;
15261;SDS011;7733;51.554;13.590;2022-09-20T14:19:02;2.00;;;0.80;;
15261;SDS011;7733;51.554;13.590;2022-09-20T14:21:32;1.10;;;1.00;;
15261;SDS011;7733;51.554;13.590;2022-09-20T14:24:02;1.97;;;0.97;;
15261;SDS011;7733;51.554;13.590;2022-09-20T14:29:47;1.97;;;1.00;;
15261;SDS011;7733;51.554;13.590;2022-09-20T14:34:41;1.80;;;1.00;;
15261;SDS011;7733;51.554;13.590;2022-09-20T14:37:23;4.30;;;2.47;;
15261;SDS011;7733;51.554;13.590;2022-09-20T14:40:17;1.60;;;1.50;;
15261;SDS011;7733;51.554;13.590;2022-09-20T14:43:05;1.20;;;1.10;;
15261;SDS011;7733;51.554;13.590;2022-09-20T14:45:41;4.17;;;3.37;;
15261;SDS011;7733;51.554;13.590;2022-09-20T14:50:42;1.77;;;1.30;;
15261;SDS011;7733;51.554;13.590;2022-09-20T14:58:27;6.43;;;4.10;;
15261;SDS011;7733;51.554;13.590;2022-09-20T15:01:00;11.37;;;7.47;;
15261;SDS011;7733;51.554;13.590;2022-09-20T15:03:40;5.53;;;4.37;;
15261;SDS011;7733;51.554;13.590;2022-09-20T15:06:10;5.50;;;4.87;;
15261;SDS011;7733;51.554;13.590;2022-09-20T15:08:37;5.53;;;4.37;;
15261;SDS011;7733;51.554;13.590;2022-09-20T15:11:04;5.17;;;4.20;;
15261;SDS011;7733;51.554;13.590;2022-09-20T15:13:30;1.70;;;0.83;;
15261;SDS011;7733;51.554;13.590;2022-09-20T15:15:55;2.80;;;2.50;;
15261;SDS011;7733;51.554;13.590;2022-09-20T15:20:51;4.77;;;2.87;;
15261;SDS011;7733;51.554;13.590;2022-09-20T15:23:19;1.00;;;0.90;;
15261;SDS011;7733;51.554;13.590;2022-09-20T15:25:48;1.20;;;1.00;;
15261;SDS011;7733;51.554;13.590;2022-09-20T15:28:15;0.80;;;0.80;;
15261;SDS011;7733;51.554;13.590;2022-09-20T15:30:45;0.90;;;0.90;;
15261;SDS011;7733;51.554;13.590;2022-09-20T15:33:14;0.90;;;0.90;;
15261;SDS011;7733;51.554;13.590;2022-09-20T15:35:42;0.80;;;0.80;;
15261;SDS011;7733;51.554;13.590;2022-09-20T15:38:09;1.47;;;1.20;;
15261;SDS011;7733;51.554;13.590;2022-09-20T15:40:39;3.30;;;3.00;;
15261;SDS011;7733;51.554;13.590;2022-09-20T15:43:11;3.63;;;3.30;;
15261;SDS011;7733;51.554;13.590;2022-09-20T15:45:47;2.27;;;2.10;;
15261;SDS011;7733;51.554;13.590;2022-09-20T15:48:18;1.53;;;1.43;;
15261;SDS011;7733;51.554;13.590;2022-09-20T15:50:57;3.13;;;2.83;;
15261;SDS011;7733;51.554;13.590;2022-09-20T15:53:37;1.90;;;1.70;;
15261;SDS011;7733;51.554;13.590;2022-09-20T15:58:50;7.23;;;6.67;;
15261;SDS011;7733;51.554;13.590;2022-09-20T16:01:22;6.70;;;6.20;;
15261;SDS011;7733;51.554;13.590;2022-09-20T16:03:52;27.00;;;24.70;;
15261;SDS011;7733;51.554;13.590;2022-09-20T16:06:18;15.77;;;14.67;;
15261;SDS011;7733;51.554;13.590;2022-09-20T16:08:44;2.20;;;1.97;;
15261;SDS011;7733;51.554;13.590;2022-09-20T16:11:13;1.90;;;1.80;;
15261;SDS011;7733;51.554;13.590;2022-09-20T16:13:44;1.70;;;1.60;;
15261;SDS011;7733;51.554;13.590;2022-09-20T16:16:11;1.27;;;0.90;;
15261;SDS011;7733;51.554;13.590;2022-09-20T16:18:41;2.07;;;1.97;;
15261;SDS011;7733;51.554;13.590;2022-09-20T16:21:25;3.30;;;3.20;;
15261;SDS011;7733;51.554;13.590;2022-09-20T16:23:52;2.87;;;2.67;;
15261;SDS011;7733;51.554;13.590;2022-09-20T16:26:21;1.13;;;1.10;;
15261;SDS011;7733;51.554;13.590;2022-09-20T16:28:49;10.30;;;8.10;;
15261;SDS011;7733;51.554;13.590;2022-09-20T16:31:32;19.53;;;12.33;;
15261;SDS011;7733;51.554;13.590;2022-09-20T16:34:09;15.00;;;9.57;;
15261;SDS011;7733;51.554;13.590;2022-09-20T16:36:46;11.60;;;9.47;;
15261;SDS011;7733;51.554;13.590;2022-09-20T16:39:15;7.10;;;5.63;;
15261;SDS011;7733;51.554;13.590;2022-09-20T16:41:45;5.43;;;5.03;;
15261;SDS011;7733;51.554;13.590;2022-09-20T16:44:13;4.37;;;4.00;;
15261;SDS011;7733;51.554;13.590;2022-09-20T16:46:39;2.33;;;2.13;;
15261;SDS011;7733;51.554;13.590;2022-09-20T16:49:06;6.53;;;6.03;;
15261;SDS011;7733;51.554;13.590;2022-09-20T16:51:36;3.13;;;2.93;;
15261;SDS011;7733;51.554;13.590;2022-09-20T16:54:08;3.73;;;3.50;;
15261;SDS011;7733;51.554;13.590;2022-09-20T16:56:37;1.00;;;1.00;;
15261;SDS011;7733;51.554;13.590;2022-09-20T16:59:05;1.30;;;1.00;;
15261;SDS011;7733;51.554;13.590;2022-09-20T17:01:32;0.80;;;0.80;;
15261;SDS011;7733;51.554;13.590;2022-09-20T17:04:00;1.37;;;0.87;;
15261;SDS011;7733;51.554;13.590;2022-09-20T17:06:29;1.43;;;1.43;;
15261;SDS011;7733;51.554;13.590;2022-09-20T17:08:56;1.37;;;1.03;;
15261;SDS011;7733;51.554;13.590;2022-09-20T17:11:26;1.70;;;1.60;;
15261;SDS011;7733;51.554;13.590;2022-09-20T17:13:55;0.83;;;0.83;;
15261;SDS011;7733;51.554;13.590;2022-09-20T17:16:23;1.80;;;1.70;;
15261;SDS011;7733;51.554;13.590;2022-09-20T17:18:56;1.67;;;1.60;;
15261;SDS011;7733;51.554;13.590;2022-09-20T17:21:27;0.70;;;0.70;;
15261;SDS011;7733;51.554;13.590;2022-09-20T17:23:55;0.80;;;0.80;;
15261;SDS011;7733;51.554;13.590;2022-09-20T17:26:24;1.03;;;0.90;;
15261;SDS011;7733;51.554;13.590;2022-09-20T17:28:57;0.87;;;0.87;;
15261;SDS011;7733;51.554;13.590;2022-09-20T17:31:26;2.37;;;1.33;;
15261;SDS011;7733;51.554;13.590;2022-09-20T17:33:58;2.37;;;1.20;;
15261;SDS011;7733;51.554;13.590;2022-09-20T17:36:26;0.97;;;0.87;;
15261;SDS011;7733;51.554;13.590;2022-09-20T17:38:55;1.00;;;1.00;;
15261;SDS011;7733;51.554;13.590;2022-09-20T17:41:24;1.10;;;1.10;;
15261;SDS011;7733;51.554;13.590;2022-09-20T17:43:54;1.00;;;1.00;;
15261;SDS011;7733;51.554;13.590;2022-09-20T17:48:54;0.90;;;0.90;;
15261;SDS011;7733;51.554;13.590;2022-09-20T17:51:23;1.40;;;1.30;;
15261;SDS011;7733;51.554;13.590;2022-09-20T17:53:51;2.20;;;2.03;;
15261;SDS011;7733;51.554;13.590;2022-09-20T17:56:19;2.23;;;2.13;;
15261;SDS011;7733;51.554;13.590;2022-09-20T17:58:47;2.90;;;2.43;;
15261;SDS011;7733;51.554;13.590;2022-09-20T18:01:15;3.80;;;3.60;;
15261;SDS011;7733;51.554;13.590;2022-09-20T18:03:44;2.23;;;2.13;;
15261;SDS011;7733;51.554;13.590;2022-09-20T18:06:13;2.13;;;1.93;;
15261;SDS011;7733;51.554;13.590;2022-09-20T18:09:07;2.00;;;2.00;;
15261;SDS011;7733;51.554;13.590;2022-09-20T18:11:37;2.17;;;2.07;;
15261;SDS011;7733;51.554;13.590;2022-09-20T18:14:06;2.07;;;1.87;;
15261;SDS011;7733;51.554;13.590;2022-09-20T18:16:39;2.30;;;2.20;;
15261;SDS011;7733;51.554;13.590;2022-09-20T18:19:08;2.50;;;2.40;;
15261;SDS011;7733;51.554;13.590;2022-09-20T18:21:34;7.60;;;7.03;;
15261;SDS011;7733;51.554;13.590;2022-09-20T18:24:06;2.60;;;2.40;;
15261;SDS011;7733;51.554;13.590;2022-09-20T18:26:34;43.17;;;39.03;;
15261;SDS011;7733;51.554;13.590;2022-09-20T18:29:01;46.97;;;42.53;;
15261;SDS011;7733;51.554;13.590;2022-09-20T18:31:35;2.27;;;2.17;;
15261;SDS011;7733;51.554;13.590;2022-09-20T18:34:22;1.23;;;1.20;;
15261;SDS011;7733;51.554;13.590;2022-09-20T18:36:57;14.63;;;13.67;;
15261;SDS011;7733;51.554;13.590;2022-09-20T18:39:26;10.43;;;9.83;;
15261;SDS011;7733;51.554;13.590;2022-09-20T18:41:56;18.00;;;16.30;;
15261;SDS011;7733;51.554;13.590;2022-09-20T18:44:22;3.20;;;3.10;;
15261;SDS011;7733;51.554;13.590;2022-09-20T18:46:48;2.00;;;1.80;;
15261;SDS011;7733;51.554;13.590;2022-09-20T18:49:18;0.80;;;0.80;;
15261;SDS011;7733;51.554;13.590;2022-09-20T18:51:45;0.80;;;0.80;;
15261;SDS011;7733;51.554;13.590;2022-09-20T18:54:12;0.83;;;0.80;;
15261;SDS011;7733;51.554;13.590;2022-09-20T18:56:39;49.40;;;31.00;;
15261;SDS011;7733;51.554;13.590;2022-09-20T19:04:50;127.97;;;75.30;;
15261;SDS011;7733;51.554;13.590;2022-09-20T19:08:02;42.23;;;27.33;;
15261;SDS011;7733;51.554;13.590;2022-09-20T19:10:48;9.77;;;8.77;;
15261;SDS011;7733;51.554;13.590;2022-09-20T19:16:34;6.20;;;5.80;;
15261;SDS011;7733;51.554;13.590;2022-09-20T19:19:20;4.70;;;4.30;;
15261;SDS011;7733;51.554;13.590;2022-09-20T19:25:06;4.20;;;3.83;;
15261;SDS011;7733;51.554;13.590;2022-09-20T19:27:52;4.10;;;3.50;;
15261;SDS011;7733;51.554;13.590;2022-09-20T19:30:18;4.80;;;3.33;;
15261;SDS011;7733;51.554;13.590;2022-09-20T19:32:44;5.30;;;3.67;;
15261;SDS011;7733;51.554;13.590;2022-09-20T19:35:15;4.40;;;4.00;;
15261;SDS011;7733;51.554;13.590;2022-09-20T19:38:10;3.80;;;3.50;;